Time;durP1;ratioP1;P1;durP2;ratioP2;P2;SDS_P1;SDS_P2;PMS_P1;PMS_P2;Temp;Humidity;BMP_temperature;BMP_pressure;BME280_temperature;BME280_humidity;BME280_pressure;Samples;Min_cycle;Max_cycle;Signal;HPM_P1;HPM_P2
2024/01/18 00:00:00;;;;;;;17.40;12.10;;;;;;;-0.10;100.00;95371.38;1224830;75;2915694;-65
2024/01/18 00:02:32;;;;;;;13.90;9.50;;;;;;;0.03;100.00;95368.44;1221652;75;2921570;-65
2024/01/18 00:05:06;;;;;;;16.70;10.85;;;;;;;-0.26;100.00;95387.94;1223672;75;2922284;-65
2024/01/18 00:07:39;;;;;;;16.80;10.80;;;;;;;-0.14;100.00;95351.25;1223196;75;2912666;-64
2024/01/18 00:10:13;;;;;;;15.70;10.20;;;;;;;-0.09;100.00;95369.44;1223831;83;2918921;-66
2024/01/18 00:12:46;;;;;;;14.10;10.60;;;;;;;-0.08;100.00;95358.22;1221535;75;2921507;-65
2024/01/18 00:15:21;;;;;;;14.20;9.50;;;;;;;-0.07;100.00;95369.72;1223870;75;2919133;-64
2024/01/18 00:17:54;;;;;;;13.45;9.15;;;;;;;0.08;100.00;95365.09;1221950;75;2924066;-67
2024/01/18 00:20:27;;;;;;;17.05;10.65;;;;;;;0.01;100.00;95348.59;1223536;75;2913446;-64
2024/01/18 00:23:00;;;;;;;19.85;12.40;;;;;;;-0.04;100.00;95377.59;1221641;75;2960184;-64
2024/01/18 00:25:33;;;;;;;19.65;12.30;;;;;;;-0.14;100.00;95376.19;1223867;75;2907943;-64
2024/01/18 00:28:06;;;;;;;19.45;12.70;;;;;;;-0.07;100.00;95373.16;1221555;75;2919513;-63
2024/01/18 00:30:42;;;;;;;20.25;13.90;;;;;;;-0.06;100.00;95371.94;1224084;75;2913142;-66
2024/01/18 00:33:15;;;;;;;17.65;12.50;;;;;;;0.06;100.00;95372.16;1221138;75;2928192;-65
2024/01/18 00:35:48;;;;;;;16.30;11.70;;;;;;;0.15;100.00;95364.00;1224474;75;2918010;-65
2024/01/18 00:38:21;;;;;;;18.40;13.00;;;;;;;-0.06;100.00;95365.81;1222592;75;2920591;-64
2024/01/18 00:40:53;;;;;;;23.15;14.50;;;;;;;0.05;100.00;95357.19;1223629;75;2919358;-65
2024/01/18 00:43:26;;;;;;;22.45;15.55;;;;;;;0.02;100.00;95358.88;1222603;75;2922318;-64
2024/01/18 00:46:07;;;;;;;20.45;13.80;;;;;;;-0.05;100.00;95361.91;1224590;75;2918359;-65
2024/01/18 00:48:39;;;;;;;19.20;12.45;;;;;;;-0.05;100.00;95364.59;1223900;75;2918359;-65
2024/01/18 00:51:12;;;;;;;17.25;12.05;;;;;;;-0.07;100.00;95351.63;1223181;75;2925918;-62
2024/01/18 00:53:45;;;;;;;17.90;10.70;;;;;;;0.10;100.00;95351.94;1223656;75;2917568;-64
2024/01/18 00:56:18;;;;;;;19.40;12.65;;;;;;;-0.03;100.00;95354.13;1224423;75;2915510;-65
2024/01/18 00:58:51;;;;;;;17.10;12.05;;;;;;;-0.04;100.00;95326.50;1223930;75;2917501;-67
2024/01/18 01:01:26;;;;;;;13.45;10.55;;;;;;;0.07;100.00;95336.69;1222256;75;2942562;-62
2024/01/18 01:03:59;;;;;;;14.50;9.90;;;;;;;0.07;100.00;95333.28;1224498;75;2917728;-67
2024/01/18 01:06:32;;;;;;;16.65;11.25;;;;;;;0.08;100.00;95330.13;1222495;75;2917594;-65
2024/01/18 01:09:06;;;;;;;12.65;9.00;;;;;;;0.05;100.00;95341.06;1224140;75;2920565;-65
2024/01/18 01:11:39;;;;;;;21.30;12.70;;;;;;;-0.08;100.00;95335.94;1223230;75;2911457;-65
2024/01/18 01:14:11;;;;;;;18.70;11.55;;;;;;;0.09;100.00;95333.56;1224060;75;2937275;-64
2024/01/18 01:16:47;;;;;;;16.50;10.15;;;;;;;0.14;100.00;95332.91;1222629;75;2916578;-64
2024/01/18 01:19:20;;;;;;;14.95;10.10;;;;;;;0.23;100.00;95338.22;1223780;75;2917252;-66
2024/01/18 01:21:52;;;;;;;14.70;10.15;;;;;;;-0.04;100.00;95344.59;1222046;75;2920435;-66
2024/01/18 01:24:25;;;;;;;17.55;11.40;;;;;;;0.14;100.00;95340.97;1223937;75;2932875;-64
2024/01/18 01:26:58;;;;;;;18.90;11.20;;;;;;;0.06;100.00;95337.91;1222045;75;2917712;-63
2024/01/18 01:29:31;;;;;;;17.35;10.35;;;;;;;0.10;100.00;95340.44;1222350;75;2918462;-69
2024/01/18 01:32:07;;;;;;;14.20;9.15;;;;;;;0.14;100.00;95330.97;1222269;75;2922620;-64
2024/01/18 01:34:40;;;;;;;14.05;8.90;;;;;;;-0.03;100.00;95327.97;1223978;75;2919989;-65
2024/01/18 01:37:13;;;;;;;15.20;9.95;;;;;;;0.14;100.00;95335.59;1221377;75;2939258;-65
2024/01/18 01:39:47;;;;;;;13.65;9.70;;;;;;;0.03;100.00;95343.50;1223397;75;2918829;-65
2024/01/18 01:42:19;;;;;;;15.75;10.00;;;;;;;0.06;100.00;95337.91;1223261;75;2914670;-66
2024/01/18 01:44:54;;;;;;;14.25;9.50;;;;;;;0.20;100.00;95334.50;1224028;75;2922424;-63
2024/01/18 01:47:29;;;;;;;18.40;10.65;;;;;;;0.05;100.00;95341.06;1222866;75;2913461;-65
2024/01/18 01:50:03;;;;;;;17.85;10.70;;;;;;;0.03;100.00;95341.53;1222997;75;2914714;-65
2024/01/18 01:52:38;;;;;;;20.00;13.00;;;;;;;-0.14;100.00;95333.16;1222194;75;2919737;-64
2024/01/18 01:55:12;;;;;;;19.20;12.00;;;;;;;-0.13;100.00;95331.22;1224479;75;2921035;-66
2024/01/18 01:57:48;;;;;;;20.50;13.30;;;;;;;-0.22;100.00;95321.28;1222412;75;2920377;-64
2024/01/18 02:00:21;;;;;;;19.20;11.75;;;;;;;-0.03;100.00;95324.56;1223997;75;2918855;-67
2024/01/18 02:02:57;;;;;;;16.20;10.75;;;;;;;-0.04;100.00;95320.38;1222185;75;2917394;-67
2024/01/18 02:05:30;;;;;;;13.95;9.70;;;;;;;0.10;100.00;95324.31;1223774;75;2923177;-65
2024/01/18 02:08:04;;;;;;;14.45;9.20;;;;;;;0.22;100.00;95328.66;1221916;75;2923896;-66
2024/01/18 02:10:37;;;;;;;11.10;7.55;;;;;;;0.34;100.00;95329.59;1223842;75;2919360;-65
2024/01/18 02:13:11;;;;;;;9.35;6.80;;;;;;;0.29;100.00;95322.91;1221966;75;2930011;-64
2024/01/18 02:15:45;;;;;;;8.40;6.15;;;;;;;0.47;100.00;95321.22;1222702;75;2931171;-65
2024/01/18 02:18:20;;;;;;;11.85;7.50;;;;;;;0.33;100.00;95317.31;1222957;75;2915612;-66
2024/01/18 02:20:53;;;;;;;15.20;9.30;;;;;;;0.12;100.00;95314.56;1222598;75;2916613;-67
2024/01/18 02:23:28;;;;;;;16.00;10.75;;;;;;;0.24;100.00;95312.81;1221943;75;2921232;-65
2024/01/18 02:26:03;;;;;;;16.35;10.05;;;;;;;0.41;100.00;95313.81;1224374;75;2921131;-62
2024/01/18 02:28:36;;;;;;;12.25;8.70;;;;;;;0.45;100.00;95305.53;1222591;75;2923031;-65
2024/01/18 02:31:09;;;;;;;18.90;12.25;;;;;;;0.25;100.00;95321.59;1224156;75;2942674;-63
2024/01/18 02:33:42;;;;;;;17.25;10.85;;;;;;;0.45;100.00;95310.19;1223480;75;2917707;-65
2024/01/18 02:36:15;;;;;;;16.15;9.70;;;;;;;0.52;100.00;95310.53;1223156;75;2924889;-64
2024/01/18 02:38:48;;;;;;;15.15;10.65;;;;;;;0.46;100.00;95298.97;1223222;75;2920575;-65
2024/01/18 02:41:24;;;;;;;19.35;10.90;;;;;;;0.60;100.00;95308.19;1221604;75;2914937;-67
2024/01/18 02:43:57;;;;;;;15.60;10.25;;;;;;;0.57;100.00;95301.81;1223363;75;2926467;-65
2024/01/18 02:46:30;;;;;;;14.30;9.90;;;;;;;0.58;100.00;95299.88;1222598;75;2923461;-65
2024/01/18 02:49:04;;;;;;;15.60;9.40;;;;;;;0.64;100.00;95303.38;1223281;75;2923187;-65
2024/01/18 02:51:37;;;;;;;11.85;8.85;;;;;;;0.70;100.00;95287.28;1222188;75;2921337;-65
2024/01/18 02:54:09;;;;;;;13.50;8.85;;;;;;;0.77;100.00;95289.59;1224137;75;2918065;-66
2024/01/18 02:56:45;;;;;;;11.25;7.55;;;;;;;0.82;100.00;95302.41;1220936;75;2918682;-65
2024/01/18 02:59:18;;;;;;;14.65;9.20;;;;;;;0.69;100.00;95305.41;1223203;75;2921285;-65
2024/01/18 03:01:50;;;;;;;19.70;11.60;;;;;;;0.60;100.00;95292.03;1222282;75;2922806;-63
2024/01/18 03:04:23;;;;;;;19.50;12.30;;;;;;;0.65;100.00;95283.34;1221890;75;2920901;-63
2024/01/18 03:06:56;;;;;;;14.75;10.15;;;;;;;0.91;100.00;95267.25;1221911;75;2920562;-67
2024/01/18 03:09:29;;;;;;;15.55;10.50;;;;;;;0.79;100.00;95271.75;1223067;75;2924805;-64
2024/01/18 03:12:04;;;;;;;16.25;10.55;;;;;;;0.83;100.00;95276.97;1221560;75;2920843;-66
2024/01/18 03:14:37;;;;;;;15.05;10.25;;;;;;;1.08;100.00;95274.81;1224008;75;2928868;-64
2024/01/18 03:17:10;;;;;;;14.50;9.85;;;;;;;1.20;100.00;95261.03;1223324;75;2913487;-65
2024/01/18 03:19:43;;;;;;;13.90;9.00;;;;;;;1.10;100.00;95258.94;1222678;75;2895092;-63
2024/01/18 03:22:15;;;;;;;13.15;8.90;;;;;;;1.05;100.00;95254.97;1218711;75;3087374;-64
2024/01/18 03:24:50;;;;;;;15.70;10.55;;;;;;;1.01;100.00;95254.41;1224665;75;2914030;-66
2024/01/18 03:27:26;;;;;;;14.80;9.55;;;;;;;1.17;100.00;95261.97;1221162;75;2920658;-63
2024/01/18 03:29:58;;;;;;;12.55;8.75;;;;;;;1.24;100.00;95250.03;1224440;75;2916843;-65
2024/01/18 03:32:31;;;;;;;10.65;7.50;;;;;;;1.37;100.00;95261.22;1221643;75;2923167;-64
2024/01/18 03:35:04;;;;;;;10.80;7.55;;;;;;;1.34;100.00;95262.16;1223635;75;2924882;-63
2024/01/18 03:37:37;;;;;;;12.65;7.85;;;;;;;1.37;100.00;95279.34;1222255;75;2925800;-64
2024/01/18 03:40:11;;;;;;;10.60;7.20;;;;;;;1.45;100.00;95267.69;1223042;75;2919301;-66
2024/01/18 03:42:46;;;;;;;9.55;6.75;;;;;;;1.52;100.00;95253.06;1220352;75;2945167;-64
2024/01/18 03:45:20;;;;;;;10.45;6.90;;;;;;;1.48;100.00;95258.66;1223770;75;2927041;-64
2024/01/18 03:47:53;;;;;;;8.20;5.95;;;;;;;1.61;100.00;95252.16;1221414;75;2926709;-66
2024/01/18 03:50:26;;;;;;;6.45;5.10;;;;;;;1.46;100.00;95246.84;1223063;75;2926689;-62
2024/01/18 03:52:59;;;;;;;8.10;5.00;;;;;;;1.60;100.00;95248.72;1222911;75;2926691;-65
2024/01/18 03:55:32;;;;;;;8.85;5.50;;;;;;;1.59;100.00;95251.88;1223189;75;2922953;-66
2024/01/18 03:58:08;;;;;;;9.35;6.30;;;;;;;1.31;100.00;95251.59;1221542;75;2923677;-66
2024/01/18 04:00:41;;;;;;;9.55;6.25;;;;;;;1.58;100.00;95242.31;1222905;75;2915566;-65
2024/01/18 04:03:14;;;;;;;9.05;6.30;;;;;;;1.48;100.00;95245.16;1221326;75;2921268;-64
2024/01/18 04:05:47;;;;;;;8.05;5.00;;;;;;;1.60;100.00;95245.28;1223363;75;2926959;-65
2024/01/18 04:08:20;;;;;;;10.55;6.50;;;;;;;1.19;100.00;95250.72;1221996;75;2932023;-65
2024/01/18 04:10:53;;;;;;;8.90;5.65;;;;;;;1.52;100.00;95252.31;1222019;83;2921889;-63
2024/01/18 04:13:29;;;;;;;7.65;4.80;;;;;;;1.73;100.00;95259.13;1221167;75;2921531;-64
2024/01/18 04:16:02;;;;;;;6.50;3.80;;;;;;;1.78;100.00;95263.09;1223592;75;2920309;-65
2024/01/18 04:18:34;;;;;;;5.75;3.70;;;;;;;1.69;100.00;95251.28;1219310;75;2926953;-65
2024/01/18 04:21:08;;;;;;;5.30;3.80;;;;;;;1.77;100.00;95243.50;1223270;75;2920637;-64
2024/01/18 04:23:41;;;;;;;4.05;3.25;;;;;;;1.80;100.00;95257.97;1222917;75;2920984;-64
2024/01/18 04:26:14;;;;;;;5.55;4.00;;;;;;;1.76;100.00;95247.41;1221188;75;2927489;-62
2024/01/18 04:28:49;;;;;;;5.80;3.55;;;;;;;1.76;100.00;95249.38;1222384;75;2929197;-65
2024/01/18 04:31:22;;;;;;;7.30;4.40;;;;;;;1.69;100.00;95248.56;1221419;75;2920991;-63
2024/01/18 04:33:55;;;;;;;5.65;4.55;;;;;;;1.87;100.00;95255.59;1222703;75;2925226;-62
2024/01/18 04:36:27;;;;;;;4.65;3.45;;;;;;;2.02;100.00;95252.03;1222636;75;2918911;-64
2024/01/18 04:39:00;;;;;;;4.00;3.00;;;;;;;2.13;100.00;95244.06;1221301;75;2913961;-64
2024/01/18 04:41:33;;;;;;;5.05;3.20;;;;;;;2.16;100.00;95243.09;1221127;75;2925825;-64
2024/01/18 04:44:09;;;;;;;4.05;2.45;;;;;;;2.24;100.00;95254.94;1223399;75;2922343;-64
2024/01/18 04:46:42;;;;;;;3.80;3.00;;;;;;;2.12;100.00;95239.88;1208684;75;3824387;-65
2024/01/18 04:49:15;;;;;;;4.85;3.50;;;;;;;2.21;100.00;95242.38;1223054;75;2920274;-64
2024/01/18 04:51:47;;;;;;;8.55;5.30;;;;;;;1.60;100.00;95245.28;1222579;75;2919695;-65
2024/01/18 04:54:20;;;;;;;10.70;6.00;;;;;;;1.73;100.00;95256.44;1224271;75;2926842;-65
2024/01/18 04:56:53;;;;;;;9.05;5.40;;;;;;;1.96;100.00;95259.38;1221247;75;2921205;-66
2024/01/18 04:59:29;;;;;;;5.50;4.15;;;;;;;2.06;100.00;95257.97;1223343;75;2924811;-63
2024/01/18 05:02:02;;;;;;;5.60;4.05;;;;;;;2.10;100.00;95251.16;1221647;75;2923550;-65
2024/01/18 05:04:35;;;;;;;6.50;4.00;;;;;;;2.06;100.00;95261.41;1223558;75;2924315;-64
2024/01/18 05:07:09;;;;;;;6.15;3.95;;;;;;;2.02;100.00;95269.00;1223453;75;2922174;-63
2024/01/18 05:09:42;;;;;;;5.35;4.10;;;;;;;2.08;100.00;95256.28;1223186;75;2924311;-64
2024/01/18 05:12:15;;;;;;;5.05;4.05;;;;;;;2.07;100.00;95268.31;1221080;75;2929822;-63
2024/01/18 05:14:50;;;;;;;6.15;4.05;;;;;;;1.98;100.00;95265.75;1223882;75;2926527;-66
2024/01/18 05:17:28;;;;;;;7.65;5.50;;;;;;;2.13;100.00;95268.34;1219495;75;2922434;-64
2024/01/18 05:20:02;;;;;;;6.20;4.60;;;;;;;2.20;100.00;95267.91;1223067;75;2924617;-65
2024/01/18 05:22:35;;;;;;;7.30;5.65;;;;;;;2.01;100.00;95272.16;1220510;75;2952597;-66
2024/01/18 05:25:09;;;;;;;7.50;5.40;;;;;;;2.20;100.00;95275.28;1223736;75;2919135;-67
2024/01/18 05:27:42;;;;;;;7.25;4.75;;;;;;;2.29;100.00;95280.50;1220388;75;2924895;-63
2024/01/18 05:30:20;;;;;;;7.00;4.65;;;;;;;2.32;100.00;95282.25;1223436;75;2925225;-63
2024/01/18 05:32:54;;;;;;;10.50;6.50;;;;;;;1.97;100.00;95277.75;1220382;75;2917055;-63
2024/01/18 05:35:27;;;;;;;15.65;9.70;;;;;;;2.15;100.00;95274.00;1223211;75;2934636;-66
2024/01/18 05:37:59;;;;;;;17.05;9.80;;;;;;;2.01;100.00;95281.00;1222770;75;2919882;-64
2024/01/18 05:40:32;;;;;;;12.40;7.70;;;;;;;2.13;100.00;95281.84;1222489;75;2923224;-66
2024/01/18 05:43:05;;;;;;;9.90;6.80;;;;;;;2.26;100.00;95276.81;1220843;75;2927557;-66
2024/01/18 05:45:41;;;;;;;9.95;6.20;;;;;;;2.23;100.00;95282.41;1222855;75;2924296;-66
2024/01/18 05:48:14;;;;;;;9.50;6.15;;;;;;;2.33;100.00;95276.38;1220847;75;2921951;-64
2024/01/18 05:50:47;;;;;;;7.80;5.45;;;;;;;2.35;100.00;95294.78;1222478;75;2921051;-67
2024/01/18 05:53:21;;;;;;;8.55;5.75;;;;;;;2.02;100.00;95287.88;1177272;75;6527116;-64
2024/01/18 05:55:53;;;;;;;9.40;6.10;;;;;;;2.07;100.00;95297.25;1223528;75;2925132;-65
2024/01/18 05:58:26;;;;;;;7.75;5.25;;;;;;;2.32;100.00;95295.75;1222738;75;2929453;-64
2024/01/18 06:01:02;;;;;;;5.90;4.00;;;;;;;2.36;100.00;95296.28;1223950;75;2923823;-63
2024/01/18 06:03:35;;;;;;;5.85;4.10;;;;;;;2.38;100.00;95301.19;1220820;75;2944409;-65
2024/01/18 06:06:09;;;;;;;7.45;4.50;;;;;;;2.33;100.00;95303.38;1223517;75;2922325;-64
2024/01/18 06:08:42;;;;;;;5.40;3.95;;;;;;;2.51;100.00;95302.28;1221955;75;2922870;-64
2024/01/18 06:11:18;;;;;;;7.45;4.75;;;;;;;2.45;100.00;95306.16;1222284;75;2931358;-64
2024/01/18 06:13:51;;;;;;;5.35;3.50;;;;;;;2.57;100.00;95305.00;1224636;75;2923678;-63
2024/01/18 06:16:26;;;;;;;4.75;3.25;;;;;;;2.62;100.00;95311.69;1220381;75;2926267;-62
2024/01/18 06:18:59;;;;;;;6.05;3.80;;;;;;;2.55;100.00;95310.91;1224240;75;2924242;-63
2024/01/18 06:21:32;;;;;;;4.85;3.60;;;;;;;2.62;100.00;95314.38;1221316;75;2925245;-64
2024/01/18 06:24:05;;;;;;;4.80;3.20;;;;;;;2.61;100.00;95316.34;1222583;75;2933424;-65
2024/01/18 06:26:38;;;;;;;4.75;3.20;;;;;;;2.56;100.00;95322.44;1222505;75;2923353;-64
2024/01/18 06:29:11;;;;;;;3.45;2.90;;;;;;;2.71;100.00;95308.81;1223032;75;2922251;-65
2024/01/18 06:31:47;;;;;;;4.45;2.85;;;;;;;2.70;100.00;95324.28;1220160;75;2930565;-64
2024/01/18 06:34:20;;;;;;;4.95;3.10;;;;;;;2.63;100.00;95330.13;1223593;75;2920871;-67
2024/01/18 06:36:53;;;;;;;9.35;5.50;;;;;;;2.48;100.00;95332.94;1219087;75;2922561;-63
2024/01/18 06:39:26;;;;;;;12.30;8.05;;;;;;;2.55;100.00;95327.13;1222588;75;2920341;-65
2024/01/18 06:41:59;;;;;;;14.25;8.70;;;;;;;2.67;100.00;95336.06;1222401;75;2928418;-64
2024/01/18 06:44:32;;;;;;;13.15;9.65;;;;;;;2.72;100.00;95348.84;1223429;75;2931402;-65
2024/01/18 06:47:08;;;;;;;14.65;9.55;;;;;;;2.77;100.00;95337.34;1219676;75;2932091;-67
2024/01/18 06:49:41;;;;;;;10.60;8.05;;;;;;;2.85;100.00;95339.59;1221001;75;2925465;-64
2024/01/18 06:52:14;;;;;;;10.45;7.40;;;;;;;2.96;100.00;95335.03;1220678;75;2918135;-65
2024/01/18 06:54:48;;;;;;;13.65;9.25;;;;;;;2.81;100.00;95342.50;1222979;75;2925245;-63
2024/01/18 06:57:21;;;;;;;11.65;7.90;;;;;;;2.86;100.00;95341.84;1221402;75;2919543;-65
2024/01/18 06:59:54;;;;;;;8.95;6.75;;;;;;;2.98;100.00;95348.81;1222192;75;2922187;-65
2024/01/18 07:02:29;;;;;;;7.45;5.30;;;;;;;3.11;100.00;95344.94;1220767;75;2922074;-66
2024/01/18 07:05:02;;;;;;;8.95;5.65;;;;;;;3.07;100.00;95347.84;1222895;75;2926525;-65
2024/01/18 07:07:35;;;;;;;9.85;6.85;;;;;;;3.14;100.00;95343.97;1220380;75;2922313;-63
2024/01/18 07:10:10;;;;;;;13.45;6.70;;;;;;;3.08;100.00;95345.88;1222747;75;2924444;-65
2024/01/18 07:12:43;;;;;;;9.60;5.90;;;;;;;3.23;100.00;95354.59;1217560;75;2923376;-67
2024/01/18 07:15:16;;;;;;;8.55;5.05;;;;;;;3.26;100.00;95350.91;1223081;75;2927087;-64
2024/01/18 07:17:51;;;;;;;9.40;5.95;;;;;;;3.17;100.00;95346.44;1221924;75;2916260;-63
2024/01/18 07:20:24;;;;;;;11.55;6.70;;;;;;;3.27;100.00;95347.00;1222156;75;2931310;-63
2024/01/18 07:22:57;;;;;;;13.70;7.50;;;;;;;3.34;100.00;95346.56;1221919;75;2925325;-62
2024/01/18 07:25:30;;;;;;;10.30;6.25;;;;;;;3.31;100.00;95344.78;1223877;75;2920262;-62
2024/01/18 07:28:03;;;;;;;10.10;5.65;;;;;;;3.36;100.00;95348.75;1221234;75;2921926;-64
2024/01/18 07:30:36;;;;;;;7.60;5.00;;;;;;;3.50;100.00;95349.81;1222887;75;2931527;-66
2024/01/18 07:33:12;;;;;;;14.20;7.45;;;;;;;3.27;100.00;95348.94;1221185;75;2926386;-64
2024/01/18 07:35:45;;;;;;;11.65;7.20;;;;;;;3.47;100.00;95348.09;1222888;75;2923715;-65
2024/01/18 07:38:18;;;;;;;9.60;6.45;;;;;;;3.52;100.00;95347.38;1221704;75;2920980;-66
2024/01/18 07:40:52;;;;;;;13.05;7.65;;;;;;;3.44;100.00;95344.38;1222673;75;2926784;-66
2024/01/18 07:43:25;;;;;;;16.60;9.70;;;;;;;3.33;100.00;95342.34;1220257;75;2925053;-63
2024/01/18 07:45:57;;;;;;;15.65;9.40;;;;;;;3.45;100.00;95345.84;1222950;75;2921490;-63
2024/01/18 07:48:37;;;;;;;21.55;12.40;;;;;;;3.48;100.00;95346.84;1222041;75;2846101;-67
2024/01/18 07:51:10;;;;;;;16.35;10.90;;;;;;;3.62;100.00;95357.50;1223220;75;2927716;-64
2024/01/18 07:53:43;;;;;;;14.95;9.35;;;;;;;3.72;100.00;95363.44;1221532;75;2931042;-64
2024/01/18 07:56:16;;;;;;;13.60;8.45;;;;;;;3.77;100.00;95361.97;1220694;75;3021842;-63
2024/01/18 07:58:49;;;;;;;11.35;7.45;;;;;;;3.92;100.00;95359.06;1221911;75;2918333;-64
2024/01/18 08:01:22;;;;;;;10.85;6.00;;;;;;;3.90;100.00;95369.66;1223296;75;2917858;-66
2024/01/18 08:03:57;;;;;;;8.00;5.35;;;;;;;3.95;100.00;95364.25;1221829;75;2924910;-65
2024/01/18 08:06:30;;;;;;;7.40;5.15;;;;;;;3.94;100.00;95367.44;1224042;75;2921586;-64
2024/01/18 08:09:03;;;;;;;7.55;5.35;;;;;;;3.86;100.00;95378.00;1221384;75;2921723;-68
2024/01/18 08:11:36;;;;;;;8.75;5.70;;;;;;;3.84;100.00;95369.63;1222325;75;2924186;-64
2024/01/18 08:14:11;;;;;;;8.95;6.00;;;;;;;3.89;100.00;95376.28;1220099;75;2917945;-64
2024/01/18 08:16:44;;;;;;;17.00;10.35;;;;;;;3.74;100.00;95376.47;1219249;75;3005051;-64
2024/01/18 08:19:19;;;;;;;14.45;10.00;;;;;;;4.07;100.00;95384.00;1222629;75;2922596;-66
2024/01/18 08:21:53;;;;;;;14.45;9.05;;;;;;;3.95;100.00;95385.19;1223117;75;2942707;-66
2024/01/18 08:24:25;;;;;;;14.80;9.75;;;;;;;3.67;100.00;95379.66;1222683;75;2926481;-67
2024/01/18 08:26:58;;;;;;;14.70;8.90;;;;;;;3.64;100.00;95389.47;1223499;75;2923849;-63
2024/01/18 08:29:31;;;;;;;12.00;8.60;;;;;;;3.65;100.00;95399.06;1221213;75;2918279;-65
2024/01/18 08:32:04;;;;;;;9.25;7.20;;;;;;;3.86;100.00;95396.22;1221685;75;2926497;-65
2024/01/18 08:34:40;;;;;;;12.30;7.35;;;;;;;3.90;100.00;95394.03;1223350;75;2921805;-67
2024/01/18 08:37:13;;;;;;;10.30;7.30;;;;;;;4.01;100.00;95394.06;1223423;75;2930416;-65
2024/01/18 08:39:46;;;;;;;11.85;6.75;;;;;;;4.02;100.00;95392.84;1222880;75;2935324;-63
2024/01/18 08:42:19;;;;;;;13.25;6.50;;;;;;;3.89;100.00;95406.06;1222087;75;2926496;-67
2024/01/18 08:44:52;;;;;;;12.35;7.50;;;;;;;3.89;100.00;95401.38;1222870;75;2927490;-66
2024/01/18 08:47:26;;;;;;;10.20;6.45;;;;;;;4.16;100.00;95407.38;1222016;75;2921804;-66
2024/01/18 08:50:02;;;;;;;12.05;5.95;;;;;;;4.25;100.00;95402.50;1223440;75;2927385;-65
2024/01/18 08:52:35;;;;;;;8.75;5.45;;;;;;;4.39;100.00;95406.22;1222749;75;2922384;-64
2024/01/18 08:55:09;;;;;;;11.40;6.05;;;;;;;4.13;100.00;95406.41;1223763;75;2920091;-69
2024/01/18 08:57:44;;;;;;;9.70;6.15;;;;;;;4.18;100.00;95404.94;1222394;75;2925566;-67
2024/01/18 09:00:21;;;;;;;8.20;5.60;;;;;;;4.34;100.00;95419.75;1222935;75;2921317;-67
2024/01/18 09:02:54;;;;;;;8.55;5.40;;;;;;;4.51;100.00;95417.81;1221778;75;2925777;-65
2024/01/18 09:05:30;;;;;;;10.50;5.50;;;;;;;4.46;100.00;95432.84;1224178;75;2921209;-65
2024/01/18 09:08:03;;;;;;;13.45;6.55;;;;;;;4.32;100.00;95433.78;1221636;75;2925579;-65
2024/01/18 09:10:36;;;;;;;14.15;7.45;;;;;;;4.35;100.00;95443.63;1222701;75;2927802;-64
2024/01/18 09:13:09;;;;;;;13.50;6.90;;;;;;;4.49;100.00;95447.38;1220932;75;2932749;-64
2024/01/18 09:15:42;;;;;;;14.35;7.15;;;;;;;4.46;100.00;95449.09;1222767;75;2925429;-64
2024/01/18 09:18:16;;;;;;;17.65;9.15;;;;;;;4.25;100.00;95456.66;1222472;75;2922188;-64
2024/01/18 09:20:51;;;;;;;23.25;11.30;;;;;;;4.07;100.00;95459.81;1223647;75;2921716;-64
2024/01/18 09:23:24;;;;;;;25.80;14.00;;;;;;;3.96;100.00;95460.47;1221494;75;2922217;-66
2024/01/18 09:25:57;;;;;;;25.20;15.70;;;;;;;3.93;100.00;95468.84;1222878;75;2922780;-67
2024/01/18 09:28:30;;;;;;;22.85;14.70;;;;;;;4.16;100.00;95470.44;1222758;75;2922735;-65
2024/01/18 09:31:03;;;;;;;27.40;17.00;;;;;;;4.14;100.00;95475.59;1224070;75;2921815;-65
2024/01/18 09:33:36;;;;;;;28.30;18.70;;;;;;;4.04;100.00;95468.88;1222933;75;2923735;-66
2024/01/18 09:36:13;;;;;;;25.40;17.15;;;;;;;4.24;100.00;95462.56;1223065;75;2915709;-64
2024/01/18 09:38:46;;;;;;;24.70;16.00;;;;;;;4.37;100.00;95465.56;1219843;75;2947866;-65
2024/01/18 09:41:20;;;;;;;20.30;14.25;;;;;;;4.55;100.00;95463.66;1221575;75;2923899;-65
2024/01/18 09:43:58;;;;;;;23.30;15.55;;;;;;;4.53;100.00;95461.44;1186774;75;5652322;-65
2024/01/18 09:46:32;;;;;;;22.70;14.80;;;;;;;4.53;100.00;95458.72;1223820;75;2924151;-65
2024/01/18 09:49:07;;;;;;;19.85;13.50;;;;;;;4.34;100.00;95457.69;1222369;75;2927210;-66
2024/01/18 09:51:43;;;;;;;25.50;15.00;;;;;;;4.21;100.00;95452.69;1223237;75;2922734;-66
2024/01/18 09:54:17;;;;;;;25.20;17.60;;;;;;;4.12;100.00;95442.84;1221235;75;2921877;-65
2024/01/18 09:56:52;;;;;;;29.90;17.90;;;;;;;4.00;100.00;95444.75;1223921;75;2918814;-64
2024/01/18 09:59:29;;;;;;;26.80;16.90;;;;;;;4.01;100.00;95448.94;1221215;75;2923877;-65
2024/01/18 10:02:04;;;;;;;24.25;15.95;;;;;;;4.10;100.00;95439.88;1223697;75;2933403;-63
2024/01/18 10:04:37;;;;;;;16.40;12.15;;;;;;;4.42;100.00;95443.16;1221726;75;2920818;-65
2024/01/18 10:07:13;;;;;;;17.60;10.80;;;;;;;4.56;100.00;95436.06;1224064;75;2920703;-63
2024/01/18 10:09:46;;;;;;;17.40;11.10;;;;;;;4.36;100.00;95420.00;1221066;75;2927325;-65
2024/01/18 10:12:19;;;;;;;15.00;10.10;;;;;;;4.45;100.00;95420.53;1221485;75;2937231;-67
2024/01/18 10:14:52;;;;;;;19.65;12.00;;;;;;;4.43;100.00;95414.84;1223307;75;2922218;-65
2024/01/18 10:17:27;;;;;;;16.75;11.20;;;;;;;4.55;100.00;95410.22;1222992;75;2921807;-65
2024/01/18 10:20:01;;;;;;;14.45;9.55;;;;;;;4.70;100.00;95405.28;1224484;75;2919891;-66
2024/01/18 10:22:36;;;;;;;15.90;10.35;;;;;;;4.65;100.00;95410.72;1222933;75;2920708;-65
2024/01/18 10:25:15;;;;;;;15.30;10.10;;;;;;;4.54;100.00;95416.09;1224030;75;2926049;-65
2024/01/18 10:27:49;;;;;;;16.55;10.85;;;;;;;4.63;100.00;95416.59;1222366;75;2950627;-68
2024/01/18 10:30:22;;;;;;;18.75;11.45;;;;;;;4.75;100.00;95422.06;1223319;75;2911090;-65
2024/01/18 10:32:54;;;;;;;16.40;11.25;;;;;;;4.72;100.00;95436.59;1222659;75;2940700;-65
2024/01/18 10:35:29;;;;;;;21.20;11.15;;;;;;;4.72;100.00;95447.44;1223825;75;2922014;-64
2024/01/18 10:38:09;;;;;;;18.55;12.10;;;;;;;4.61;100.00;95453.56;1223776;75;2923677;-67
2024/01/18 10:40:42;;;;;;;21.45;13.45;;;;;;;4.64;100.00;95461.47;1222598;75;2923283;-65
2024/01/18 10:43:16;;;;;;;21.70;13.55;;;;;;;4.87;100.00;95464.19;1222966;75;2923447;-65
2024/01/18 10:45:50;;;;;;;19.85;12.80;;;;;;;4.86;100.00;95463.47;1224519;75;2918996;-67
2024/01/18 10:48:22;;;;;;;17.00;11.45;;;;;;;4.96;100.00;95458.56;1223410;75;2926952;-67
2024/01/18 10:50:57;;;;;;;15.50;10.40;;;;;;;5.12;100.00;95457.06;1223222;75;2920930;-65
2024/01/18 10:53:33;;;;;;;18.70;11.35;;;;;;;5.03;100.00;95451.91;1223443;75;2922213;-66
2024/01/18 10:56:07;;;;;;;22.20;12.10;;;;;;;5.19;100.00;95453.13;1223039;75;2921310;-64
2024/01/18 10:58:39;;;;;;;17.55;12.25;;;;;;;5.20;100.00;95454.63;1223616;75;2922363;-63
2024/01/18 11:01:13;;;;;;;14.90;10.85;;;;;;;5.53;100.00;95459.25;1223279;75;2921712;-66
2024/01/18 11:03:47;;;;;;;14.15;9.80;;;;;;;5.51;100.00;95464.47;1222991;75;2934407;-65
2024/01/18 11:06:22;;;;;;;16.65;10.90;;;;;;;5.46;100.00;95465.94;1224268;75;2921143;-67
2024/01/18 11:09:00;;;;;;;15.25;10.60;;;;;;;5.43;100.00;95463.47;1223495;75;2935105;-67
2024/01/18 11:11:34;;;;;;;19.20;11.90;;;;;;;5.63;100.00;95463.22;1223769;75;2922512;-65
2024/01/18 11:14:07;;;;;;;15.65;9.85;;;;;;;5.81;100.00;95472.06;1224582;75;2922185;-66
2024/01/18 11:16:46;;;;;;;16.50;11.20;;;;;;;5.98;100.00;95472.78;1223874;75;2923199;-65
2024/01/18 11:19:41;;;;;;;19.30;12.40;;;;;;;6.26;100.00;95469.25;1223683;75;2924317;-65
2024/01/18 11:22:25;;;;;;;21.55;12.25;;;;;;;6.45;100.00;95483.75;1222773;75;2921525;-65
2024/01/18 11:25:10;;;;;;;21.85;12.50;;;;;;;6.89;100.00;95484.00;1223624;75;2923070;-65
2024/01/18 11:27:44;;;;;;;27.55;15.30;;;;;;;6.82;100.00;95485.28;1222970;75;2931376;-65
2024/01/18 11:30:36;;;;;;;19.90;12.20;;;;;;;7.94;100.00;95496.50;1223386;75;2915527;-63
2024/01/18 11:33:10;;;;;;;23.10;12.95;;;;;;;8.80;100.00;95503.97;1223589;75;2921276;-65
2024/01/18 11:35:44;;;;;;;23.35;11.50;;;;;;;9.57;100.00;95497.91;1223447;75;2925169;-63